Time;durP1;ratioP1;P1;durP2;ratioP2;P2;SDS_P1;SDS_P2;PMS_P1;PMS_P2;Temp;Humidity;BMP_temperature;BMP_pressure;BME280_temperature;BME280_humidity;BME280_pressure;Samples;Min_cycle;Max_cycle;Signal;HPM_P1;HPM_P2
2022/01/25 00:25:45;;;;;;;16.90;8.35;;;;;;;;;;5048970;28;20496;-73
2022/01/25 00:28:24;;;;;;;11.88;7.78;;;;;;;;;;5049224;28;20067;-73
2022/01/25 00:33:25;;;;;;;12.95;8.23;;;;;;;;;;5049135;28;20128;-73
2022/01/25 00:35:51;;;;;;;17.15;10.80;;;;;;;;;;5049108;28;20029;-73
2022/01/25 00:38:16;;;;;;;20.38;11.95;;;;;;;;;;5048985;28;20036;-73
2022/01/25 00:40:41;;;;;;;19.13;11.95;;;;;;;;;;5049114;28;20029;-72
2022/01/25 00:43:07;;;;;;;19.00;11.73;;;;;;;;;;5029441;28;20471;-73
2022/01/25 00:45:32;;;;;;;18.20;11.13;;;;;;;;;;5029557;28;20030;-73
2022/01/25 00:47:57;;;;;;;21.42;12.35;;;;;;;;;;5029032;28;20453;-73
2022/01/25 00:50:23;;;;;;;20.17;11.40;;;;;;;;;;5029735;28;20037;-73
2022/01/25 00:55:15;;;;;;;20.75;11.75;;;;;;;;;;5053551;28;20025;-72
2022/01/25 00:57:41;;;;;;;17.75;11.02;;;;;;;;;;5063510;28;20035;-72
2022/01/25 01:00:09;;;;;;;15.60;10.45;;;;;;;;;;5076461;28;20057;-72
2022/01/25 01:02:34;;;;;;;16.77;10.23;;;;;;;;;;5067263;28;20482;-73
2022/01/25 01:04:59;;;;;;;15.68;9.95;;;;;;;;;;5052085;28;20035;-73
2022/01/25 01:07:25;;;;;;;16.63;9.32;;;;;;;;;;5051645;28;20037;-73
2022/01/25 01:09:52;;;;;;;16.15;8.82;;;;;;;;;;5047727;28;20021;-73
2022/01/25 01:13:00;;;;;;;12.27;8.73;;;;;;;;;;5033111;28;20091;-73
2022/01/25 01:15:56;;;;;;;13.50;8.88;;;;;;;;;;5032765;28;20072;-72
2022/01/25 01:31:48;;;;;;;18.13;9.90;;;;;;;;;;5053239;28;20048;-72
2022/01/25 01:48:01;;;;;;;12.20;7.28;;;;;;;;;;5052339;28;20568;-73
2022/01/25 01:50:29;;;;;;;11.87;7.73;;;;;;;;;;5052445;28;20489;-73
2022/01/25 01:52:55;;;;;;;11.38;7.13;;;;;;;;;;5052099;28;20047;-73
2022/01/25 01:55:22;;;;;;;10.27;6.72;;;;;;;;;;5049263;28;20084;-74
2022/01/25 01:57:49;;;;;;;13.23;6.93;;;;;;;;;;5052311;28;20478;-73
2022/01/25 02:00:20;;;;;;;11.20;7.93;;;;;;;;;;5051781;28;20032;-72
2022/01/25 02:02:46;;;;;;;14.73;7.88;;;;;;;;;;5051287;28;20638;-74
2022/01/25 02:05:11;;;;;;;11.35;8.27;;;;;;;;;;5051503;28;20123;-73
2022/01/25 02:07:37;;;;;;;12.82;8.50;;;;;;;;;;5052147;28;20333;-73
2022/01/25 02:10:05;;;;;;;11.90;7.82;;;;;;;;;;5051413;28;20106;-73
2022/01/25 02:12:30;;;;;;;11.57;7.65;;;;;;;;;;5051403;28;20037;-73
2022/01/25 02:14:56;;;;;;;14.52;9.65;;;;;;;;;;5051438;28;20031;-71
2022/01/25 02:17:51;;;;;;;14.93;9.02;;;;;;;;;;5052039;28;20028;-73
2022/01/25 02:23:01;;;;;;;14.55;9.38;;;;;;;;;;5052096;28;20120;-73
2022/01/25 02:25:27;;;;;;;13.60;9.38;;;;;;;;;;5050549;28;20029;-73
2022/01/25 02:27:52;;;;;;;15.85;10.07;;;;;;;;;;5044213;28;20541;-73
2022/01/25 02:30:18;;;;;;;17.33;9.77;;;;;;;;;;5031433;28;20101;-72
2022/01/25 02:32:44;;;;;;;16.95;9.23;;;;;;;;;;5031821;28;20407;-72
2022/01/25 02:35:11;;;;;;;12.32;8.63;;;;;;;;;;5031080;28;20035;-72
2022/01/25 02:37:38;;;;;;;16.33;9.75;;;;;;;;;;5038637;28;20020;-73
2022/01/25 02:40:04;;;;;;;21.10;10.65;;;;;;;;;;5049920;28;20028;-72
2022/01/25 02:42:30;;;;;;;23.77;11.23;;;;;;;;;;5051485;28;20040;-73
2022/01/25 02:44:55;;;;;;;22.00;10.23;;;;;;;;;;5050512;28;20029;-73
2022/01/25 02:50:05;;;;;;;22.98;11.13;;;;;;;;;;5051069;28;20090;-72
2022/01/25 02:52:31;;;;;;;23.55;10.73;;;;;;;;;;5077446;28;20013;-72
2022/01/25 02:54:57;;;;;;;20.92;10.82;;;;;;;;;;5065168;28;20133;-73
2022/01/25 02:57:23;;;;;;;23.05;10.45;;;;;;;;;;5051080;28;20037;-72
2022/01/25 02:59:48;;;;;;;25.83;11.57;;;;;;;;;;5050447;28;20055;-72
2022/01/25 03:02:14;;;;;;;23.77;10.93;;;;;;;;;;5051218;28;20049;-73
2022/01/25 03:04:39;;;;;;;25.88;12.18;;;;;;;;;;5043204;22;20129;-69
2022/01/25 03:07:05;;;;;;;20.80;10.90;;;;;;;;;;5011391;28;20187;-69
2022/01/25 03:09:31;;;;;;;23.52;10.93;;;;;;;;;;5010575;28;20025;-69
2022/01/25 03:11:57;;;;;;;23.88;10.73;;;;;;;;;;5011229;28;20491;-69
2022/01/25 03:14:27;;;;;;;26.40;11.98;;;;;;;;;;5009959;28;20435;-69
2022/01/25 03:22:03;;;;;;;24.90;12.07;;;;;;;;;;5010966;28;20033;-69
2022/01/25 03:24:29;;;;;;;23.88;11.63;;;;;;;;;;5009090;28;20148;-70
2022/01/25 03:26:54;;;;;;;21.13;10.20;;;;;;;;;;4991649;28;20124;-69
2022/01/25 03:29:19;;;;;;;21.15;10.10;;;;;;;;;;4990873;28;20922;-69
2022/01/25 03:31:45;;;;;;;21.67;10.05;;;;;;;;;;4991341;28;20038;-69
2022/01/25 03:34:11;;;;;;;18.50;9.43;;;;;;;;;;4990633;28;20030;-69
2022/01/25 03:36:36;;;;;;;23.60;11.05;;;;;;;;;;5007598;28;20042;-69
2022/01/25 03:39:04;;;;;;;24.15;10.85;;;;;;;;;;5010971;28;20026;-69
2022/01/25 03:41:30;;;;;;;25.60;11.60;;;;;;;;;;5010530;28;20025;-69
2022/01/25 03:43:56;;;;;;;25.58;13.25;;;;;;;;;;5009378;28;20051;-69
2022/01/25 03:46:35;;;;;;;22.02;11.52;;;;;;;;;;5009876;28;20030;-69
2022/01/25 03:51:45;;;;;;;22.23;11.05;;;;;;;;;;5010920;28;20245;-69
2022/01/25 03:54:11;;;;;;;26.55;11.93;;;;;;;;;;5010390;28;20120;-69
2022/01/25 03:56:37;;;;;;;20.65;10.00;;;;;;;;;;5010062;28;20026;-69
2022/01/25 03:59:05;;;;;;;24.15;11.40;;;;;;;;;;5010814;28;20026;-69
2022/01/25 04:01:30;;;;;;;22.65;10.18;;;;;;;;;;5008034;28;20389;-69
2022/01/25 04:04:03;;;;;;;20.85;10.82;;;;;;;;;;5010179;28;20046;-69
2022/01/25 04:06:33;;;;;;;22.40;10.70;;;;;;;;;;5009394;28;20021;-69
2022/01/25 04:09:00;;;;;;;23.48;11.05;;;;;;;;;;5010117;28;20303;-69
2022/01/25 04:11:26;;;;;;;21.17;10.10;;;;;;;;;;5009625;28;20034;-69
2022/01/25 04:13:55;;;;;;;25.02;11.20;;;;;;;;;;5010075;28;20490;-69
2022/01/25 04:16:26;;;;;;;26.15;10.88;;;;;;;;;;5006598;28;20029;-69
2022/01/25 04:26:48;;;;;;;23.40;10.75;;;;;;;;;;5008943;28;20037;-69
2022/01/25 04:29:14;;;;;;;25.38;10.45;;;;;;;;;;5009915;28;20034;-69
2022/01/25 04:31:40;;;;;;;24.42;11.73;;;;;;;;;;5009586;28;20451;-69
2022/01/25 04:50:14;;;;;;;23.92;10.27;;;;;;;;;;4993225;28;20084;-69
2022/01/25 04:52:52;;;;;;;23.00;10.77;;;;;;;;;;5009683;28;20072;-69
2022/01/25 04:55:25;;;;;;;22.73;9.82;;;;;;;;;;5008868;28;20486;-69
2022/01/25 04:57:58;;;;;;;28.25;10.88;;;;;;;;;;5009577;28;20033;-69
2022/01/25 05:00:25;;;;;;;27.48;11.30;;;;;;;;;;4993026;28;20400;-69
2022/01/25 05:11:41;;;;;;;22.38;9.50;;;;;;;;;;5002068;28;20096;-69
2022/01/25 05:16:15;;;;;;;22.17;9.13;;;;;;;;;;5008830;28;20180;-69
2022/01/25 05:18:47;;;;;;;20.90;8.95;;;;;;;;;;5008779;28;20034;-69
2022/01/25 05:23:57;;;;;;;20.67;8.43;;;;;;;;;;5009691;28;20517;-69
2022/01/25 05:26:24;;;;;;;22.80;8.48;;;;;;;;;;5008821;28;20038;-69
2022/01/25 05:28:49;;;;;;;22.08;9.73;;;;;;;;;;5009494;28;20037;-69
2022/01/25 05:31:14;;;;;;;22.83;9.10;;;;;;;;;;5008916;28;20022;-69
2022/01/25 05:33:40;;;;;;;20.88;9.55;;;;;;;;;;5005540;28;20121;-69
2022/01/25 05:36:05;;;;;;;22.05;8.63;;;;;;;;;;5008362;28;20111;-69
2022/01/25 05:38:30;;;;;;;22.08;9.02;;;;;;;;;;5010937;28;20033;-70
2022/01/25 05:41:01;;;;;;;24.35;8.70;;;;;;;;;;5012479;28;20419;-70
2022/01/25 05:46:17;;;;;;;20.17;9.63;;;;;;;;;;5012051;28;20079;-70
2022/01/25 05:48:43;;;;;;;20.38;9.07;;;;;;;;;;5012440;28;20037;-70
2022/01/25 05:51:10;;;;;;;21.42;8.30;;;;;;;;;;5010795;28;20079;-70
2022/01/25 05:53:36;;;;;;;21.10;9.23;;;;;;;;;;5012773;28;20029;-70
2022/01/25 05:56:01;;;;;;;18.33;7.70;;;;;;;;;;5012535;28;20025;-70
2022/01/25 05:58:27;;;;;;;20.13;8.98;;;;;;;;;;5012746;28;20031;-70
2022/01/25 06:00:52;;;;;;;19.77;9.02;;;;;;;;;;5011890;28;20025;-71
2022/01/25 06:03:18;;;;;;;19.13;8.23;;;;;;;;;;5012331;28;20056;-70
2022/01/25 06:05:44;;;;;;;19.85;8.80;;;;;;;;;;5011549;28;20061;-70
2022/01/25 06:08:10;;;;;;;21.20;8.27;;;;;;;;;;5012194;28;20064;-70
2022/01/25 06:10:35;;;;;;;18.63;7.95;;;;;;;;;;5012298;28;20030;-70
2022/01/25 06:13:01;;;;;;;18.42;8.27;;;;;;;;;;5011804;28;20056;-70
2022/01/25 06:15:26;;;;;;;23.50;8.52;;;;;;;;;;5011797;28;20025;-70
2022/01/25 06:17:52;;;;;;;19.55;8.93;;;;;;;;;;5001914;28;20431;-70
2022/01/25 06:20:18;;;;;;;17.58;8.57;;;;;;;;;;4995293;28;20022;-70
2022/01/25 06:22:43;;;;;;;17.00;7.45;;;;;;;;;;5003766;28;20041;-70
2022/01/25 06:25:10;;;;;;;19.85;8.82;;;;;;;;;;5008024;28;20038;-70
2022/01/25 06:27:39;;;;;;;21.38;7.88;;;;;;;;;;5010490;28;20017;-70
2022/01/25 06:30:07;;;;;;;18.60;7.70;;;;;;;;;;4997783;28;20399;-70
2022/01/25 06:32:32;;;;;;;19.98;9.50;;;;;;;;;;5010803;28;20029;-70
2022/01/25 06:34:59;;;;;;;18.83;7.53;;;;;;;;;;5011478;28;20400;-70
2022/01/25 06:37:24;;;;;;;18.20;7.97;;;;;;;;;;5011349;28;20053;-70
2022/01/25 06:39:49;;;;;;;19.60;8.20;;;;;;;;;;5011673;28;20050;-70
2022/01/25 06:42:15;;;;;;;16.48;7.03;;;;;;;;;;5000084;28;20034;-70
2022/01/25 06:44:40;;;;;;;16.85;7.45;;;;;;;;;;5000577;28;20038;-70
2022/01/25 06:47:06;;;;;;;16.88;7.82;;;;;;;;;;5011135;28;20439;-70
2022/01/25 06:49:31;;;;;;;19.92;8.02;;;;;;;;;;5011358;28;20034;-70
2022/01/25 06:51:58;;;;;;;18.27;7.53;;;;;;;;;;5010962;28;20030;-70
2022/01/25 06:54:23;;;;;;;19.02;7.68;;;;;;;;;;5010905;28;20403;-70
2022/01/25 06:56:48;;;;;;;15.73;7.45;;;;;;;;;;5010530;28;20040;-70
2022/01/25 06:59:15;;;;;;;16.45;7.70;;;;;;;;;;5011674;28;20387;-70
2022/01/25 07:01:40;;;;;;;17.90;8.25;;;;;;;;;;5006302;28;20021;-70
2022/01/25 07:04:06;;;;;;;18.88;7.90;;;;;;;;;;5010035;28;20091;-70
2022/01/25 07:06:31;;;;;;;19.45;8.48;;;;;;;;;;5005767;28;20037;-70
2022/01/25 07:08:57;;;;;;;16.08;7.72;;;;;;;;;;4995682;28;20145;-71
2022/01/25 07:11:23;;;;;;;16.67;7.57;;;;;;;;;;5000436;28;20631;-70
2022/01/25 07:13:48;;;;;;;16.60;7.63;;;;;;;;;;4998579;28;20023;-70
2022/01/25 07:16:14;;;;;;;17.98;7.57;;;;;;;;;;4995231;28;20032;-70
2022/01/25 07:18:39;;;;;;;16.92;7.82;;;;;;;;;;5007000;28;20372;-70
2022/01/25 07:21:05;;;;;;;17.90;7.90;;;;;;;;;;5006162;28;20484;-70
2022/01/25 07:23:30;;;;;;;21.70;8.57;;;;;;;;;;5007094;28;20687;-70
2022/01/25 07:25:55;;;;;;;18.92;7.78;;;;;;;;;;5006841;28;20054;-70
2022/01/25 07:28:21;;;;;;;21.88;8.57;;;;;;;;;;5006003;28;20049;-70
2022/01/25 07:30:46;;;;;;;16.33;7.82;;;;;;;;;;5007261;28;20038;-70
2022/01/25 07:33:11;;;;;;;34.00;13.82;;;;;;;;;;5005048;28;20022;-70
2022/01/25 07:35:37;;;;;;;27.88;12.55;;;;;;;;;;4999069;28;20030;-70
2022/01/25 07:38:03;;;;;;;15.43;7.30;;;;;;;;;;4997908;28;20033;-69
2022/01/25 07:40:30;;;;;;;17.85;6.93;;;;;;;;;;5006396;28;20029;-69
2022/01/25 07:42:56;;;;;;;15.60;6.90;;;;;;;;;;5001084;28;20116;-70
2022/01/25 07:45:21;;;;;;;17.35;7.25;;;;;;;;;;5006125;28;20070;-70
2022/01/25 07:47:47;;;;;;;14.90;8.48;;;;;;;;;;5006230;28;20037;-70
2022/01/25 07:50:14;;;;;;;14.82;6.97;;;;;;;;;;5006546;28;20037;-70
2022/01/25 07:52:40;;;;;;;16.80;7.38;;;;;;;;;;5004713;28;20542;-69
2022/01/25 07:55:06;;;;;;;16.83;7.50;;;;;;;;;;5006277;28;20044;-70
2022/01/25 07:57:32;;;;;;;16.90;8.07;;;;;;;;;;5006733;28;20028;-70
2022/01/25 07:59:58;;;;;;;16.20;7.47;;;;;;;;;;5006237;28;20026;-69
2022/01/25 08:02:24;;;;;;;15.95;7.22;;;;;;;;;;5005252;28;20026;-70
2022/01/25 08:04:49;;;;;;;16.30;7.70;;;;;;;;;;5006179;28;20124;-69
2022/01/25 08:07:17;;;;;;;18.75;8.05;;;;;;;;;;5004962;28;20045;-69
2022/01/25 08:09:42;;;;;;;19.98;8.15;;;;;;;;;;5005047;28;20403;-69
2022/01/25 08:12:10;;;;;;;15.57;7.40;;;;;;;;;;5007199;28;20025;-69
2022/01/25 08:14:35;;;;;;;16.48;7.53;;;;;;;;;;5004829;28;20045;-70
2022/01/25 08:17:01;;;;;;;17.38;7.70;;;;;;;;;;5006726;28;20029;-70
2022/01/25 08:19:26;;;;;;;15.60;7.50;;;;;;;;;;5004958;28;20018;-70
2022/01/25 08:21:51;;;;;;;21.08;8.18;;;;;;;;;;5005032;28;20022;-69
2022/01/25 08:24:21;;;;;;;17.92;6.82;;;;;;;;;;5003170;28;20080;-69
2022/01/25 08:26:47;;;;;;;21.13;8.77;;;;;;;;;;5004411;28;20033;-69
2022/01/25 08:29:13;;;;;;;17.48;8.43;;;;;;;;;;5001112;28;20080;-70
2022/01/25 08:31:39;;;;;;;17.92;8.10;;;;;;;;;;5006646;28;20021;-69
2022/01/25 08:34:05;;;;;;;19.60;7.63;;;;;;;;;;5004250;28;20484;-69
2022/01/25 08:36:30;;;;;;;20.85;7.53;;;;;;;;;;5016854;28;20029;-69
2022/01/25 08:38:56;;;;;;;19.35;9.30;;;;;;;;;;5013936;28;20112;-69
2022/01/25 08:41:22;;;;;;;18.52;9.00;;;;;;;;;;5007656;28;20113;-69
2022/01/25 08:43:48;;;;;;;18.90;8.48;;;;;;;;;;5005176;28;20030;-69
2022/01/25 08:46:14;;;;;;;22.38;8.20;;;;;;;;;;5004876;28;20030;-69
2022/01/25 08:48:39;;;;;;;17.40;7.55;;;;;;;;;;5004158;28;20485;-69
2022/01/25 08:51:05;;;;;;;20.10;8.02;;;;;;;;;;5005861;28;20446;-70
2022/01/25 08:53:31;;;;;;;19.40;8.55;;;;;;;;;;5002779;28;20033;-69
2022/01/25 08:55:56;;;;;;;17.48;7.80;;;;;;;;;;4992630;28;20029;-69
2022/01/25 08:58:22;;;;;;;23.95;9.77;;;;;;;;;;5004072;28;20041;-69
2022/01/25 09:00:47;;;;;;;17.15;8.02;;;;;;;;;;5005685;28;20128;-69
2022/01/25 09:05:40;;;;;;;17.83;8.20;;;;;;;;;;5025362;22;20062;-73
2022/01/25 09:08:06;;;;;;;19.50;8.57;;;;;;;;;;5005524;28;20068;-72
2022/01/25 09:10:32;;;;;;;24.67;10.35;;;;;;;;;;5005644;28;20057;-71
2022/01/25 09:12:57;;;;;;;21.02;9.23;;;;;;;;;;5006620;28;20026;-72
2022/01/25 09:15:23;;;;;;;20.27;8.32;;;;;;;;;;5005487;28;20080;-72
2022/01/25 09:17:49;;;;;;;18.88;8.35;;;;;;;;;;5010477;28;20511;-72
2022/01/25 09:20:14;;;;;;;22.95;8.60;;;;;;;;;;5007045;28;20372;-72
2022/01/25 09:22:40;;;;;;;16.52;7.97;;;;;;;;;;5010505;28;20034;-72
2022/01/25 09:25:06;;;;;;;17.70;7.43;;;;;;;;;;5004023;28;20037;-72
2022/01/25 09:27:31;;;;;;;21.92;10.32;;;;;;;;;;5009211;28;20049;-74
2022/01/25 09:29:56;;;;;;;16.55;7.85;;;;;;;;;;5008375;28;20422;-73
2022/01/25 09:32:22;;;;;;;19.58;8.00;;;;;;;;;;5008956;28;20045;-74
2022/01/25 09:34:47;;;;;;;19.30;8.43;;;;;;;;;;5008685;28;20030;-73
2022/01/25 09:37:13;;;;;;;18.40;6.97;;;;;;;;;;5010572;28;20022;-74
2022/01/25 09:39:39;;;;;;;13.38;6.28;;;;;;;;;;5007130;28;20030;-74
2022/01/25 09:42:09;;;;;;;13.35;6.57;;;;;;;;;;5008624;28;20442;-73
2022/01/25 09:44:39;;;;;;;11.95;5.25;;;;;;;;;;5001849;28;20029;-74
2022/01/25 09:47:06;;;;;;;14.07;7.03;;;;;;;;;;4999051;28;20138;-74
2022/01/25 09:49:33;;;;;;;15.02;6.53;;;;;;;;;;4997860;28;20053;-74
2022/01/25 09:52:01;;;;;;;15.30;6.18;;;;;;;;;;5007411;28;20117;-74
2022/01/25 09:54:27;;;;;;;25.08;7.18;;;;;;;;;;4999063;28;20030;-73
2022/01/25 09:56:52;;;;;;;20.77;7.60;;;;;;;;;;4997568;28;20022;-74
2022/01/25 09:59:17;;;;;;;18.85;6.35;;;;;;;;;;5000015;28;20045;-74
2022/01/25 10:01:43;;;;;;;20.13;8.32;;;;;;;;;;4998900;28;20018;-73
2022/01/25 10:04:29;;;;;;;15.43;7.80;;;;;;;;;;5005664;28;20041;-73
2022/01/25 10:06:55;;;;;;;20.85;8.25;;;;;;;;;;5007867;28;20095;-73
2022/01/25 10:09:21;;;;;;;17.50;7.53;;;;;;;;;;5007052;28;20030;-73
2022/01/25 10:11:47;;;;;;;20.92;7.80;;;;;;;;;;5008636;28;20030;-74
2022/01/25 10:14:13;;;;;;;21.25;7.68;;;;;;;;;;5008254;28;20181;-73
2022/01/25 10:16:39;;;;;;;18.02;7.18;;;;;;;;;;4988624;28;20037;-73
2022/01/25 10:19:10;;;;;;;19.77;8.18;;;;;;;;;;5002820;28;20432;-73
2022/01/25 10:21:49;;;;;;;18.88;8.15;;;;;;;;;;5008031;28;20033;-73
2022/01/25 10:24:27;;;;;;;17.67;7.18;;;;;;;;;;5007261;28;20033;-73
2022/01/25 10:27:03;;;;;;;18.90;8.02;;;;;;;;;;5007431;28;20021;-74
2022/01/25 10:29:35;;;;;;;14.35;6.50;;;;;;;;;;5007465;28;20022;-73
2022/01/25 10:32:02;;;;;;;15.98;7.75;;;;;;;;;;5004526;28;20443;-73
2022/01/25 10:34:32;;;;;;;19.42;8.23;;;;;;;;;;5008419;28;20072;-73
2022/01/25 10:36:59;;;;;;;15.63;7.32;;;;;;;;;;5007454;28;20368;-73
2022/01/25 10:39:33;;;;;;;17.10;6.93;;;;;;;;;;5007645;28;20022;-73
2022/01/25 10:42:25;;;;;;;16.33;8.40;;;;;;;;;;5007413;28;20040;-73
2022/01/25 10:44:56;;;;;;;24.35;7.47;;;;;;;;;;5007830;28;20080;-73
2022/01/25 10:47:46;;;;;;;13.35;6.82;;;;;;;;;;5005038;28;20098;-73
2022/01/25 10:50:15;;;;;;;13.27;7.13;;;;;;;;;;4991308;28;20461;-73
2022/01/25 10:52:40;;;;;;;13.07;6.88;;;;;;;;;;5007671;28;20150;-73
2022/01/25 10:55:06;;;;;;;12.05;6.20;;;;;;;;;;5006697;28;20403;-73
2022/01/25 10:57:32;;;;;;;11.25;5.68;;;;;;;;;;5007684;28;20450;-73
2022/01/25 11:00:00;;;;;;;13.25;6.10;;;;;;;;;;5007519;28;20032;-73
2022/01/25 11:02:27;;;;;;;13.00;6.53;;;;;;;;;;5001266;28;20030;-73
2022/01/25 11:05:07;;;;;;;15.38;7.05;;;;;;;;;;5009234;28;20117;-73
2022/01/25 11:07:44;;;;;;;18.63;8.75;;;;;;;;;;5009776;28;20108;-74
2022/01/25 11:10:18;;;;;;;13.32;6.47;;;;;;;;;;5011253;28;20059;-73
2022/01/25 11:12:59;;;;;;;12.90;6.10;;;;;;;;;;5011000;28;20045;-73
2022/01/25 11:15:24;;;;;;;11.68;6.45;;;;;;;;;;5010299;28;20068;-73
2022/01/25 11:17:50;;;;;;;15.05;7.13;;;;;;;;;;5009802;28;20033;-73
2022/01/25 11:20:15;;;;;;;14.27;6.93;;;;;;;;;;5010726;28;20113;-74
2022/01/25 11:22:42;;;;;;;14.63;7.35;;;;;;;;;;5010389;28;20029;-73
2022/01/25 11:25:08;;;;;;;15.48;7.15;;;;;;;;;;5010597;28;20104;-74
2022/01/25 11:27:33;;;;;;;15.85;7.15;;;;;;;;;;5010240;28;20466;-73
2022/01/25 11:30:10;;;;;;;12.90;7.22;;;;;;;;;;5010791;28;20451;-73
2022/01/25 11:32:40;;;;;;;18.52;7.63;;;;;;;;;;5008660;28;20037;-73
2022/01/25 11:35:09;;;;;;;17.13;8.07;;;;;;;;;;5010340;28;20045;-73
2022/01/25 11:37:38;;;;;;;13.05;6.80;;;;;;;;;;5010002;28;20080;-73
2022/01/25 11:40:20;;;;;;;15.57;7.65;;;;;;;;;;5010808;28;20049;-73
2022/01/25 11:42:51;;;;;;;16.35;7.95;;;;;;;;;;5010310;28;20049;-73
2022/01/25 11:45:24;;;;;;;16.88;8.05;;;;;;;;;;5010467;28;20459;-73
2022/01/25 11:47:51;;;;;;;30.60;8.68;;;;;;;;;;5010435;28;20030;-73
2022/01/25 11:50:17;;;;;;;20.33;8.93;;;;;;;;;;5008993;28;20038;-73
2022/01/25 11:52:51;;;;;;;21.75;8.60;;;;;;;;;;5010046;28;20042;-73
2022/01/25 11:55:21;;;;;;;19.08;9.10;;;;;;;;;;5010252;28;20022;-74
2022/01/25 11:57:51;;;;;;;15.18;7.03;;;;;;;;;;5009848;28;20458;-73
2022/01/25 12:00:21;;;;;;;17.23;7.28;;;;;;;;;;5010506;28;20028;-74
2022/01/25 12:02:53;;;;;;;18.15;8.57;;;;;;;;;;5006511;28;20105;-73
2022/01/25 12:05:27;;;;;;;21.67;8.02;;;;;;;;;;5007950;28;20088;-73
2022/01/25 12:08:13;;;;;;;15.43;7.93;;;;;;;;;;5009263;28;20057;-73
2022/01/25 12:10:42;;;;;;;16.00;7.72;;;;;;;;;;5008239;28;20036;-74
2022/01/25 12:13:08;;;;;;;20.02;9.52;;;;;;;;;;5008842;28;20356;-74
2022/01/25 12:15:34;;;;;;;17.65;9.15;;;;;;;;;;5008243;28;20360;-72
2022/01/25 12:17:59;;;;;;;17.58;8.43;;;;;;;;;;5008258;28;20108;-72
2022/01/25 12:20:25;;;;;;;16.63;8.00;;;;;;;;;;5009767;28;20033;-73
2022/01/25 12:23:16;;;;;;;17.75;8.32;;;;;;;;;;5009533;28;20026;-71
2022/01/25 12:25:54;;;;;;;16.13;7.88;;;;;;;;;;5009773;28;20036;-72
2022/01/25 12:28:28;;;;;;;17.00;8.60;;;;;;;;;;5009503;28;20515;-71
2022/01/25 12:30:53;;;;;;;19.77;8.82;;;;;;;;;;5009883;28;20033;-72
2022/01/25 12:33:27;;;;;;;17.35;8.25;;;;;;;;;;5009142;28;20480;-72
2022/01/25 12:36:00;;;;;;;20.27;9.10;;;;;;;;;;5009394;28;20041;-72
2022/01/25 12:38:37;;;;;;;18.20;8.60;;;;;;;;;;5008241;28;20022;-71
2022/01/25 12:41:28;;;;;;;16.92;8.25;;;;;;;;;;5009758;28;20573;-72
2022/01/25 12:43:59;;;;;;;17.15;7.05;;;;;;;;;;5009265;28;20030;-71
2022/01/25 12:46:40;;;;;;;15.57;7.25;;;;;;;;;;5009249;28;20033;-75
2022/01/25 12:49:11;;;;;;;12.60;6.82;;;;;;;;;;5009260;28;20038;-72
2022/01/25 12:51:38;;;;;;;13.57;6.93;;;;;;;;;;5005117;28;20033;-71
2022/01/25 12:54:10;;;;;;;16.88;7.90;;;;;;;;;;5006617;28;20172;-72
2022/01/25 12:56:47;;;;;;;18.23;8.02;;;;;;;;;;4999518;28;20041;-72
2022/01/25 12:59:19;;;;;;;15.45;7.20;;;;;;;;;;5004446;28;20391;-73
2022/01/25 13:01:46;;;;;;;15.37;7.60;;;;;;;;;;5006328;28;20021;-71
2022/01/25 13:04:12;;;;;;;12.40;6.70;;;;;;;;;;5009473;28;20263;-72
2022/01/25 13:06:40;;;;;;;18.80;8.13;;;;;;;;;;5008309;28;20030;-73
2022/01/25 13:09:14;;;;;;;21.40;9.70;;;;;;;;;;5008267;28;20030;-73
2022/01/25 13:14:48;;;;;;;19.55;7.60;;;;;;;;;;5011992;28;20041;-73
2022/01/25 13:17:22;;;;;;;12.60;6.30;;;;;;;;;;5015034;28;20022;-72
2022/01/25 13:19:59;;;;;;;15.00;7.65;;;;;;;;;;5005287;28;20112;-74
2022/01/25 13:22:30;;;;;;;16.75;8.00;;;;;;;;;;5006927;28;20037;-74
2022/01/25 13:27:48;;;;;;;17.17;8.75;;;;;;;;;;5008426;28;20083;-73
2022/01/25 13:33:00;;;;;;;21.52;9.35;;;;;;;;;;5009529;28;20057;-73
2022/01/25 13:35:30;;;;;;;18.35;9.20;;;;;;;;;;5005842;28;20499;-72
2022/01/25 13:38:04;;;;;;;23.77;9.43;;;;;;;;;;5008961;28;20034;-71
2022/01/25 13:40:43;;;;;;;17.27;8.68;;;;;;;;;;5009998;28;20034;-71
2022/01/25 13:43:33;;;;;;;24.85;9.70;;;;;;;;;;5014254;28;20033;-72
2022/01/25 13:45:57;;;;;;;19.23;8.57;;;;;;;;;;5016406;28;20042;-73
2022/01/25 13:48:25;;;;;;;19.15;9.05;;;;;;;;;;5007652;28;20041;-73
2022/01/25 13:50:59;;;;;;;22.85;12.63;;;;;;;;;;5008308;28;20026;-71
2022/01/25 13:53:26;;;;;;;18.83;9.80;;;;;;;;;;5008671;28;20558;-73
2022/01/25 13:55:54;;;;;;;25.90;12.35;;;;;;;;;;5009556;28;20026;-72
2022/01/25 13:58:25;;;;;;;19.02;8.70;;;;;;;;;;5002191;28;20037;-73
2022/01/25 14:00:52;;;;;;;18.23;8.73;;;;;;;;;;5002273;28;20061;-72
2022/01/25 14:03:26;;;;;;;17.58;8.30;;;;;;;;;;5009209;28;20037;-72
2022/01/25 14:05:51;;;;;;;15.15;8.38;;;;;;;;;;5011879;28;20095;-71
2022/01/25 14:08:16;;;;;;;16.45;8.20;;;;;;;;;;5005059;28;20469;-72
2022/01/25 14:10:47;;;;;;;22.13;9.15;;;;;;;;;;5009740;28;20600;-73
2022/01/25 14:24:30;;;;;;;25.90;9.52;;;;;;;;;;5005183;28;20101;-73
2022/01/25 14:26:57;;;;;;;17.60;8.10;;;;;;;;;;4992947;28;20066;-72
2022/01/25 14:29:23;;;;;;;17.90;8.23;;;;;;;;;;5010970;28;20022;-72
2022/01/25 14:31:48;;;;;;;19.45;8.50;;;;;;;;;;5010069;28;20038;-75
2022/01/25 14:34:17;;;;;;;16.95;7.63;;;;;;;;;;5000178;28;20375;-72
2022/01/25 14:36:46;;;;;;;18.58;8.45;;;;;;;;;;5011705;28;20072;-72
2022/01/25 14:39:13;;;;;;;18.38;8.82;;;;;;;;;;5010064;28;20064;-72
2022/01/25 14:41:38;;;;;;;21.50;9.95;;;;;;;;;;5012229;28;20037;-71
2022/01/25 14:44:06;;;;;;;20.38;8.80;;;;;;;;;;5010950;28;20378;-72
2022/01/25 14:46:39;;;;;;;22.80;10.70;;;;;;;;;;4993951;28;20435;-71
2022/01/25 14:49:07;;;;;;;;;;;;;;;;;;5011472;28;20022;-72
2022/01/25 14:51:41;;;;;;;23.95;12.80;;;;;;;;;;5011397;28;20409;-73
2022/01/25 14:54:09;;;;;;;21.00;9.68;;;;;;;;;;5008301;28;20503;-71
2022/01/25 14:56:38;;;;;;;22.48;10.88;;;;;;;;;;5003738;28;20022;-73
2022/01/25 15:02:15;;;;;;;20.50;9.27;;;;;;;;;;5007836;28;20044;-71
2022/01/25 15:04:43;;;;;;;20.73;9.23;;;;;;;;;;5009763;28;20069;-72
2022/01/25 15:07:12;;;;;;;15.40;8.07;;;;;;;;;;5054398;22;20056;-69
2022/01/25 15:09:50;;;;;;;18.05;8.55;;;;;;;;;;5049247;28;20039;-69
2022/01/25 15:12:18;;;;;;;19.95;9.32;;;;;;;;;;5042409;28;20478;-69
2022/01/25 15:14:57;;;;;;;17.85;8.20;;;;;;;;;;5048485;28;20393;-70
2022/01/25 15:17:22;;;;;;;19.55;9.13;;;;;;;;;;5030797;28;20025;-69
2022/01/25 15:19:48;;;;;;;18.42;8.68;;;;;;;;;;5029864;28;20037;-69
2022/01/25 15:22:14;;;;;;;18.98;8.65;;;;;;;;;;5030818;28;20482;-70
2022/01/25 15:24:42;;;;;;;19.63;8.68;;;;;;;;;;5029141;28;20029;-69
2022/01/25 15:27:08;;;;;;;20.25;8.57;;;;;;;;;;5025089;28;20025;-69
2022/01/25 15:29:34;;;;;;;17.35;7.80;;;;;;;;;;5029329;28;20093;-69
2022/01/25 15:32:00;;;;;;;17.67;8.85;;;;;;;;;;5030407;28;20064;-69
2022/01/25 15:34:27;;;;;;;18.52;8.45;;;;;;;;;;5029890;28;20494;-69
2022/01/25 15:36:53;;;;;;;18.50;8.68;;;;;;;;;;5028106;28;20041;-69
2022/01/25 15:39:19;;;;;;;15.48;8.40;;;;;;;;;;5027557;28;20037;-69
2022/01/25 15:41:47;;;;;;;18.45;8.88;;;;;;;;;;5024369;28;20029;-70
2022/01/25 15:44:15;;;;;;;28.17;12.65;;;;;;;;;;5027908;28;20025;-69
2022/01/25 15:49:12;;;;;;;24.17;9.32;;;;;;;;;;5029241;28;20090;-70
2022/01/25 15:51:37;;;;;;;72.28;24.80;;;;;;;;;;5030019;28;20029;-70
2022/01/25 15:54:02;;;;;;;36.25;17.70;;;;;;;;;;5028237;28;20021;-69
2022/01/25 15:56:28;;;;;;;22.30;9.57;;;;;;;;;;5024387;28;20065;-69
2022/01/25 15:58:54;;;;;;;19.80;9.43;;;;;;;;;;5022878;28;20159;-69
2022/01/25 16:01:20;;;;;;;18.90;8.82;;;;;;;;;;5028870;28;20473;-69
2022/01/25 16:03:46;;;;;;;20.90;9.18;;;;;;;;;;5027471;28;20380;-69
2022/01/25 16:06:11;;;;;;;16.42;8.15;;;;;;;;;;5029570;28;20040;-72
2022/01/25 16:08:38;;;;;;;20.05;10.50;;;;;;;;;;5025522;28;20079;-71
2022/01/25 16:11:12;;;;;;;17.63;8.70;;;;;;;;;;5029182;28;20349;-73
2022/01/25 16:13:38;;;;;;;16.42;8.00;;;;;;;;;;5029978;28;20251;-73
2022/01/25 16:16:03;;;;;;;15.43;7.57;;;;;;;;;;5028617;28;20216;-72
2022/01/25 16:18:29;;;;;;;18.77;8.63;;;;;;;;;;5029631;28;20038;-72
2022/01/25 16:20:55;;;;;;;18.80;8.63;;;;;;;;;;5029413;28;20025;-72
2022/01/25 16:23:20;;;;;;;20.55;8.30;;;;;;;;;;5016585;28;20034;-73
2022/01/25 16:25:45;;;;;;;18.70;8.02;;;;;;;;;;5010519;28;20069;-72
2022/01/25 16:28:11;;;;;;;18.33;8.25;;;;;;;;;;5012667;28;20384;-72
2022/01/25 16:30:37;;;;;;;20.45;9.23;;;;;;;;;;5025958;28;20457;-72
2022/01/25 16:33:03;;;;;;;18.75;8.77;;;;;;;;;;5027064;28;20025;-72
2022/01/25 16:35:28;;;;;;;19.77;9.20;;;;;;;;;;5014285;28;20026;-72
2022/01/25 16:37:54;;;;;;;23.55;10.75;;;;;;;;;;5012863;28;20201;-72
2022/01/25 16:40:20;;;;;;;19.35;9.10;;;;;;;;;;5015778;28;20068;-72
2022/01/25 16:42:46;;;;;;;18.67;9.32;;;;;;;;;;5009978;28;20038;-72
2022/01/25 16:45:13;;;;;;;23.13;10.45;;;;;;;;;;5020787;28;20513;-72
2022/01/25 16:47:39;;;;;;;27.98;11.30;;;;;;;;;;5026179;28;20534;-72
2022/01/25 16:50:12;;;;;;;23.85;11.43;;;;;;;;;;5028831;28;20506;-72
2022/01/25 16:52:37;;;;;;;23.70;9.70;;;;;;;;;;5029375;28;20025;-71